Time;durP1;ratioP1;P1;durP2;ratioP2;P2;SDS_P1;SDS_P2;PMS_P1;PMS_P2;Temp;Humidity;BMP_temperature;BMP_pressure;BME280_temperature;BME280_humidity;BME280_pressure;Samples;Min_cycle;Max_cycle;Signal;HPM_P1;HPM_P2
2022/07/13 11:48:15;;;;;;;0.65;0.60;;;30.20;59.90;;;;;;7363802;19;20155;-75
2022/07/13 11:50:43;;;;;;;0.68;0.68;;;30.20;60.10;;;;;;7387637;19;20150;-77
2022/07/13 11:53:21;;;;;;;1.35;0.93;;;30.20;61.20;;;;;;7391708;19;20614;-78
2022/07/13 11:55:47;;;;;;;0.50;0.50;;;30.30;60.50;;;;;;7390083;19;20149;-79
2022/07/13 11:58:25;;;;;;;1.00;0.43;;;30.20;59.70;;;;;;7390889;19;20145;-79
2022/07/13 12:00:52;;;;;;;1.48;1.13;;;30.10;61.80;;;;;;7387660;19;20134;-78
2022/07/13 12:03:34;;;;;;;1.08;0.80;;;30.10;62.30;;;;;;7389556;19;20406;-81
2022/07/13 12:06:05;;;;;;;0.75;0.63;;;30.20;62.00;;;;;;7391014;19;20235;-80
2022/07/13 12:08:36;;;;;;;0.98;0.55;;;30.30;61.20;;;;;;7390959;19;20406;-78
2022/07/13 12:11:04;;;;;;;0.70;0.60;;;30.30;60.90;;;;;;7389892;19;20150;-77
2022/07/13 12:13:33;;;;;;;2.22;0.52;;;30.50;59.80;;;;;;7390722;19;20402;-78
2022/07/13 12:15:59;;;;;;;1.70;0.50;;;30.50;60.40;;;;;;7388590;19;20161;-78
2022/07/13 12:18:25;;;;;;;1.38;0.80;;;30.80;60.70;;;;;;7389802;19;20150;-78
2022/07/13 12:20:51;;;;;;;1.38;0.60;;;30.90;60.70;;;;;;7388836;19;20170;-78
2022/07/13 12:23:17;;;;;;;1.05;0.60;;;31.00;59.50;;;;;;7392165;19;20222;-78
2022/07/13 12:25:47;;;;;;;0.60;0.50;;;31.00;58.80;;;;;;7388557;19;20166;-78
2022/07/13 12:28:13;;;;;;;0.38;0.35;;;31.00;58.70;;;;;;7389293;19;20179;-77
2022/07/13 12:30:58;;;;;;;1.08;0.80;;;30.90;59.00;;;;;;7388765;19;20146;-78
2022/07/13 12:33:25;;;;;;;0.38;0.30;;;30.90;58.60;;;;;;7387421;19;20149;-77
2022/07/13 12:36:04;;;;;;;4.13;2.92;;;31.00;57.60;;;;;;7391151;19;20174;-80
2022/07/13 12:38:31;;;;;;;1.33;0.80;;;31.20;57.50;;;;;;7389366;19;20391;-78
2022/07/13 12:40:59;;;;;;;0.98;0.68;;;31.10;57.80;;;;;;7391655;19;20143;-77
2022/07/13 12:43:26;;;;;;;0.65;0.47;;;31.00;57.50;;;;;;7393363;19;20143;-78
2022/07/13 12:45:58;;;;;;;0.80;0.55;;;31.00;56.90;;;;;;7389462;19;20139;-78
2022/07/13 12:48:34;;;;;;;2.03;0.88;;;31.00;57.00;;;;;;7390422;19;20613;-77
2022/07/13 12:51:02;;;;;;;0.45;0.40;;;31.00;57.30;;;;;;7390089;19;20671;-78
2022/07/13 12:53:45;;;;;;;0.40;0.40;;;31.10;57.00;;;;;;7392349;19;20126;-77
2022/07/13 12:56:11;;;;;;;1.20;0.82;;;31.10;57.40;;;;;;7396921;19;20149;-77
2022/07/13 12:58:48;;;;;;;2.92;0.80;;;31.00;56.00;;;;;;7404379;19;20908;-79
2022/07/13 13:01:27;;;;;;;5.82;5.20;;;30.90;56.10;;;;;;7403409;19;20158;-79
2022/07/13 13:03:56;;;;;;;3.85;2.00;;;30.90;56.90;;;;;;7406165;19;20167;-80
2022/07/13 13:06:23;;;;;;;0.90;0.50;;;30.90;58.00;;;;;;7408991;19;20142;-79
2022/07/13 13:08:48;;;;;;;0.30;0.30;;;30.80;55.70;;;;;;7407558;19;20206;-79
2022/07/13 13:11:14;;;;;;;2.00;1.80;;;30.90;55.10;;;;;;7408763;19;20147;-80
2022/07/13 13:13:40;;;;;;;3.35;1.98;;;30.90;55.80;;;;;;7410771;19;20131;-79
2022/07/13 13:16:07;;;;;;;1.58;1.30;;;30.90;56.60;;;;;;7411192;19;20146;-79
2022/07/13 13:18:32;;;;;;;2.30;0.40;;;30.70;56.00;;;;;;7410587;19;20155;-79
2022/07/13 13:20:58;;;;;;;0.22;0.22;;;30.80;55.60;;;;;;7408973;19;20162;-78
2022/07/13 13:23:24;;;;;;;0.30;0.30;;;30.90;54.20;;;;;;7409974;19;20411;-79
2022/07/13 13:25:50;;;;;;;1.10;1.00;;;30.90;55.10;;;;;;7403206;19;20173;-79
2022/07/13 13:28:16;;;;;;;1.20;0.80;;;30.80;56.90;;;;;;7404678;19;20148;-79
2022/07/13 13:30:45;;;;;;;0.30;0.30;;;30.80;56.10;;;;;;7401933;19;20178;-79
2022/07/13 13:33:12;;;;;;;1.35;0.70;;;30.80;55.60;;;;;;7399958;19;20142;-79
2022/07/13 13:35:38;;;;;;;0.50;0.50;;;30.80;55.30;;;;;;7403668;19;20158;-81
2022/07/13 13:38:04;;;;;;;2.92;0.43;;;30.80;55.30;;;;;;7400137;19;20149;-79
2022/07/13 13:40:30;;;;;;;0.20;0.20;;;31.00;54.60;;;;;;7397861;19;20150;-79
2022/07/13 13:42:56;;;;;;;1.00;0.80;;;30.90;55.20;;;;;;7397853;19;20135;-79
2022/07/13 13:45:22;;;;;;;0.40;0.40;;;30.90;55.80;;;;;;7397359;19;20147;-80
2022/07/13 13:47:48;;;;;;;1.05;0.70;;;30.90;55.80;;;;;;7394011;19;20163;-79
2022/07/13 13:50:14;;;;;;;0.73;0.43;;;30.90;56.20;;;;;;7398165;19;20135;-79
2022/07/13 13:52:41;;;;;;;0.68;0.40;;;30.90;56.00;;;;;;7394707;19;20135;-78
2022/07/13 13:55:08;;;;;;;0.50;0.40;;;30.90;56.30;;;;;;7397357;19;20492;-79
2022/07/13 13:57:34;;;;;;;0.65;0.47;;;30.90;55.30;;;;;;7395680;19;20184;-78
2022/07/13 14:00:00;;;;;;;1.15;0.40;;;30.80;55.80;;;;;;7395251;19;20158;-79
2022/07/13 14:02:26;;;;;;;0.98;0.55;;;30.80;56.10;;;;;;7395901;19;20487;-80
2022/07/13 14:04:52;;;;;;;1.30;0.70;;;30.60;57.00;;;;;;7395213;19;20147;-79
2022/07/13 14:07:18;;;;;;;1.05;0.70;;;30.50;56.40;;;;;;7394824;19;20612;-80
2022/07/13 14:09:44;;;;;;;0.38;0.38;;;30.40;57.50;;;;;;7394980;19;20146;-79
2022/07/13 14:12:10;;;;;;;1.10;0.52;;;30.40;56.90;;;;;;7395570;19;20134;-80
2022/07/13 14:14:35;;;;;;;1.73;1.10;;;30.20;56.60;;;;;;7396505;19;20146;-80
2022/07/13 14:17:03;;;;;;;2.65;1.02;;;30.30;57.50;;;;;;7395375;19;20596;-80
2022/07/13 14:19:29;;;;;;;1.13;1.02;;;30.10;57.50;;;;;;7393340;19;20134;-81
2022/07/13 14:21:55;;;;;;;1.33;0.57;;;30.10;57.70;;;;;;7396395;19;20178;-79
2022/07/13 14:24:23;;;;;;;0.70;0.50;;;29.90;56.60;;;;;;7394650;19;20150;-80
2022/07/13 14:26:50;;;;;;;0.68;0.60;;;29.90;57.20;;;;;;7390837;19;20178;-80
2022/07/13 14:29:16;;;;;;;1.08;0.75;;;29.90;57.00;;;;;;7394413;19;20608;-80
2022/07/13 14:31:42;;;;;;;1.47;0.63;;;29.80;57.10;;;;;;7391217;19;20407;-78
2022/07/13 14:34:08;;;;;;;0.45;0.38;;;29.80;57.00;;;;;;7395280;19;20420;-78
2022/07/13 14:36:36;;;;;;;1.40;1.00;;;29.80;57.40;;;;;;7395573;19;20158;-80
2022/07/13 14:39:02;;;;;;;3.15;2.13;;;29.80;58.50;;;;;;7395056;19;20191;-80
2022/07/13 14:41:28;;;;;;;1.10;1.00;;;29.90;58.80;;;;;;7394022;19;20134;-80
2022/07/13 14:43:54;;;;;;;0.85;0.75;;;29.90;57.90;;;;;;7394656;19;20611;-80
2022/07/13 14:46:25;;;;;;;2.22;2.00;;;29.80;58.20;;;;;;7394458;19;20139;-80
2022/07/13 14:48:50;;;;;;;2.47;1.60;;;29.60;59.40;;;;;;7392315;19;20375;-80
2022/07/13 14:51:16;;;;;;;0.40;0.40;;;29.60;59.20;;;;;;7393668;19;20145;-80
2022/07/13 14:53:42;;;;;;;0.50;0.50;;;29.40;58.40;;;;;;7392911;19;20446;-80
2022/07/13 14:56:08;;;;;;;2.27;0.70;;;29.60;58.10;;;;;;7392087;19;20378;-81
2022/07/13 14:58:34;;;;;;;1.42;0.80;;;29.60;57.80;;;;;;7394044;19;20206;-80
2022/07/13 15:01:00;;;;;;;3.45;0.73;;;29.60;57.20;;;;;;7394044;19;20212;-81
2022/07/13 15:03:28;;;;;;;1.52;0.70;;;29.60;58.10;;;;;;7393234;19;20391;-81
2022/07/13 15:05:55;;;;;;;4.70;1.35;;;29.60;57.70;;;;;;7393051;19;20138;-80
2022/07/13 15:08:21;;;;;;;3.72;1.88;;;29.60;58.40;;;;;;7394085;19;20157;-80
2022/07/13 15:10:47;;;;;;;1.60;1.48;;;29.70;58.80;;;;;;7393924;19;20138;-81
2022/07/13 15:13:12;;;;;;;1.15;0.95;;;29.50;57.70;;;;;;7393527;19;20732;-81
2022/07/13 15:15:38;;;;;;;2.55;1.30;;;29.50;58.90;;;;;;7392990;19;20130;-82
2022/07/13 15:18:05;;;;;;;0.73;0.65;;;29.40;58.70;;;;;;7388669;19;20150;-79
2022/07/13 15:20:31;;;;;;;0.95;0.70;;;29.40;59.10;;;;;;7392278;19;20178;-81
2022/07/13 15:22:57;;;;;;;1.48;0.88;;;29.30;60.20;;;;;;7391288;19;20150;-80
2022/07/13 15:25:22;;;;;;;1.75;0.50;;;29.30;61.50;;;;;;7392316;19;20182;-80
2022/07/13 15:27:48;;;;;;;0.82;0.60;;;29.30;58.50;;;;;;7389711;19;20138;-79
2022/07/13 15:30:14;;;;;;;0.77;0.57;;;29.30;59.70;;;;;;7392427;19;20145;-81
2022/07/13 15:32:40;;;;;;;1.25;0.88;;;29.20;59.70;;;;;;7390202;19;20131;-82
2022/07/13 15:35:07;;;;;;;0.52;0.50;;;29.10;61.40;;;;;;7394012;19;20139;-83
2022/07/13 15:37:33;;;;;;;1.30;1.02;;;29.20;59.90;;;;;;7392996;19;20529;-81
2022/07/13 15:39:59;;;;;;;2.45;1.30;;;29.40;60.30;;;;;;7394173;19;20165;-81
2022/07/13 15:42:25;;;;;;;2.03;1.20;;;29.50;60.60;;;;;;7393475;19;20135;-83
2022/07/13 15:44:51;;;;;;;3.10;1.75;;;29.60;60.30;;;;;;7392668;19;20130;-82
2022/07/13 15:47:17;;;;;;;3.80;1.50;;;29.50;60.90;;;;;;7393942;19;20159;-81
2022/07/13 15:49:42;;;;;;;3.88;1.60;;;29.40;61.40;;;;;;7389148;19;20158;-80
2022/07/13 15:52:08;;;;;;;1.95;1.25;;;29.30;62.00;;;;;;7393033;19;20134;-82
2022/07/13 15:54:34;;;;;;;1.58;0.68;;;29.10;61.90;;;;;;7392173;19;20180;-82
2022/07/13 15:57:00;;;;;;;3.42;0.80;;;29.00;62.20;;;;;;7395665;19;20659;-87
2022/07/13 15:59:26;;;;;;;1.85;0.88;;;28.80;61.70;;;;;;7392376;19;20142;-84
2022/07/13 16:01:52;;;;;;;1.75;0.90;;;28.80;61.90;;;;;;7392814;19;20535;-81
2022/07/13 16:04:17;;;;;;;5.85;0.88;;;28.80;62.00;;;;;;7391556;19;20871;-79
2022/07/13 16:06:43;;;;;;;2.10;0.85;;;28.70;61.50;;;;;;7392229;19;20142;-84
2022/07/13 16:09:09;;;;;;;2.70;0.90;;;28.70;62.30;;;;;;7391403;19;20592;-81
2022/07/13 16:11:35;;;;;;;1.80;0.90;;;28.60;62.30;;;;;;7390659;19;21026;-82
2022/07/13 16:14:01;;;;;;;1.80;1.38;;;28.50;62.40;;;;;;7395706;19;20146;-82
2022/07/13 16:16:28;;;;;;;1.20;0.75;;;28.40;61.90;;;;;;7393812;19;20146;-83
2022/07/13 16:18:54;;;;;;;1.73;0.80;;;28.50;61.80;;;;;;7391976;19;20598;-83
2022/07/13 16:21:19;;;;;;;0.82;0.63;;;28.40;61.70;;;;;;7391207;19;20131;-81
2022/07/13 16:23:45;;;;;;;4.82;0.70;;;28.50;61.90;;;;;;7392272;19;20595;-83
2022/07/13 16:26:11;;;;;;;1.02;0.65;;;28.50;62.00;;;;;;7392348;19;20190;-82
2022/07/13 16:28:38;;;;;;;1.60;0.80;;;28.40;62.10;;;;;;7394195;19;20151;-82
2022/07/13 16:31:06;;;;;;;2.40;1.05;;;28.50;62.20;;;;;;7399994;19;20167;-81
2022/07/13 16:33:35;;;;;;;3.55;0.80;;;28.40;62.50;;;;;;7401987;19;20130;-82
2022/07/13 16:36:01;;;;;;;1.15;0.70;;;28.30;62.70;;;;;;7400046;19;20205;-81
2022/07/13 16:38:27;;;;;;;3.22;0.90;;;28.20;63.40;;;;;;7399260;19;20151;-84
2022/07/13 16:40:52;;;;;;;1.20;0.60;;;28.10;63.50;;;;;;7401929;19;20158;-82
2022/07/13 16:43:18;;;;;;;1.35;0.80;;;28.10;64.20;;;;;;7402334;19;20130;-83
2022/07/13 16:45:44;;;;;;;1.45;0.85;;;28.20;63.90;;;;;;7398292;19;20135;-83
2022/07/13 16:48:10;;;;;;;1.77;1.17;;;28.20;64.10;;;;;;7395288;19;20170;-82
2022/07/13 16:50:36;;;;;;;1.00;0.60;;;28.20;64.70;;;;;;7402246;19;20130;-85
2022/07/13 16:53:02;;;;;;;2.90;2.22;;;28.20;64.60;;;;;;7402831;19;20540;-82
2022/07/13 16:55:28;;;;;;;2.83;1.20;;;28.10;65.40;;;;;;7401200;19;20509;-84
2022/07/13 16:57:53;;;;;;;1.38;0.85;;;28.20;65.10;;;;;;7402296;19;20139;-85
2022/07/13 17:00:22;;;;;;;2.10;1.70;;;28.20;65.10;;;;;;7398750;19;20146;-82
2022/07/13 17:02:48;;;;;;;2.75;1.00;;;28.10;65.70;;;;;;7399963;19;20151;-83
2022/07/13 17:05:14;;;;;;;1.40;0.90;;;28.20;65.90;;;;;;7399719;19;20135;-85
2022/07/13 17:07:40;;;;;;;1.30;1.05;;;28.20;66.00;;;;;;7399784;19;20161;-83
2022/07/13 17:10:06;;;;;;;1.33;1.00;;;28.30;66.50;;;;;;7399055;19;20151;-85
2022/07/13 17:12:35;;;;;;;3.42;1.13;;;28.40;67.00;;;;;;7400437;19;20893;-84
2022/07/13 17:15:02;;;;;;;2.42;1.35;;;28.40;67.60;;;;;;7402276;19;20142;-84
2022/07/13 17:17:28;;;;;;;3.40;0.90;;;28.40;68.30;;;;;;7400680;19;20146;-80
2022/07/13 17:20:57;;;;;;;1.70;0.80;;;28.40;68.50;;;;;;7146566;19;21389;-87
2022/07/13 17:23:23;;;;;;;1.08;0.82;;;28.20;69.00;;;;;;7377493;19;20215;-86
2022/07/13 17:25:48;;;;;;;1.63;0.80;;;28.10;69.90;;;;;;7431489;19;20245;-83
2022/07/13 17:28:14;;;;;;;1.45;0.70;;;28.00;70.30;;;;;;7432703;19;20149;-86
2022/07/13 17:30:40;;;;;;;1.10;1.00;;;27.90;70.50;;;;;;7437763;19;20142;-83
2022/07/13 17:33:06;;;;;;;2.10;0.88;;;28.10;70.50;;;;;;7432240;19;20224;-84
2022/07/13 17:35:33;;;;;;;1.77;0.90;;;28.10;70.60;;;;;;7429492;19;20467;-84
2022/07/13 17:37:59;;;;;;;1.40;0.98;;;28.10;70.20;;;;;;7429779;19;20608;-84
2022/07/13 17:40:24;;;;;;;1.20;1.00;;;28.00;71.00;;;;;;7426170;19;20180;-82
2022/07/13 17:42:50;;;;;;;1.13;0.90;;;27.90;71.90;;;;;;7430496;19;20177;-84
2022/07/13 17:45:16;;;;;;;2.50;1.00;;;27.90;72.80;;;;;;7428311;19;20224;-83
2022/07/13 17:47:42;;;;;;;1.25;0.80;;;27.80;72.70;;;;;;7429337;19;20197;-83
2022/07/13 17:50:08;;;;;;;1.45;1.10;;;27.80;72.70;;;;;;7430146;19;20154;-84
2022/07/13 17:52:33;;;;;;;1.30;1.20;;;27.90;72.80;;;;;;7427165;19;20161;-80
2022/07/13 17:54:59;;;;;;;2.95;1.60;;;28.00;72.70;;;;;;7426506;19;20137;-77
2022/07/13 17:57:28;;;;;;;7.40;3.50;;;27.90;74.30;;;;;;7424619;19;20167;-81
2022/07/13 17:59:54;;;;;;;31.70;8.50;;;27.80;82.00;;;;;;7424966;19;20138;-81
2022/07/13 18:02:21;;;;;;;5.15;2.00;;;27.40;87.40;;;;;;7422325;19;20162;-80
2022/07/13 18:04:47;;;;;;;1.80;1.30;;;27.20;87.40;;;;;;7428300;19;20167;-81
2022/07/13 18:07:13;;;;;;;2.95;1.05;;;27.00;81.40;;;;;;7434480;19;20161;-81
2022/07/13 18:09:39;;;;;;;2.13;1.05;;;27.00;81.50;;;;;;7430646;19;20157;-81
2022/07/13 18:12:06;;;;;;;1.85;1.27;;;27.00;79.90;;;;;;7434335;19;20157;-82
2022/07/13 18:14:31;;;;;;;1.27;1.05;;;27.00;82.90;;;;;;7428061;19;20145;-81
2022/07/13 18:16:57;;;;;;;6.82;1.10;;;27.00;81.30;;;;;;7425602;19;20247;-82
2022/07/13 18:19:23;;;;;;;1.55;1.30;;;27.00;80.20;;;;;;7426573;19;20608;-82
2022/07/13 18:21:49;;;;;;;2.20;1.00;;;27.00;79.90;;;;;;7432485;19;20142;-81
2022/07/13 18:24:15;;;;;;;2.00;1.20;;;27.00;81.80;;;;;;7443306;19;20130;-81
2022/07/13 18:26:42;;;;;;;1.45;1.08;;;27.10;80.70;;;;;;7440398;19;20154;-81
2022/07/13 18:29:08;;;;;;;1.98;1.20;;;27.10;79.50;;;;;;7432289;19;20161;-81
2022/07/13 18:31:35;;;;;;;2.45;1.10;;;27.10;81.10;;;;;;7409435;19;20135;-82
2022/07/13 18:34:00;;;;;;;1.88;1.17;;;27.20;78.80;;;;;;7403887;19;20143;-81
2022/07/13 18:36:26;;;;;;;4.25;1.10;;;27.30;79.60;;;;;;7412526;19;20142;-80
2022/07/13 18:38:52;;;;;;;1.27;1.00;;;27.30;78.90;;;;;;7407471;19;20193;-81
2022/07/13 18:41:18;;;;;;;2.05;1.20;;;27.30;80.40;;;;;;7406998;19;20174;-81
2022/07/13 18:43:44;;;;;;;3.85;1.38;;;27.30;80.60;;;;;;7408144;19;20135;-81
2022/07/13 18:46:13;;;;;;;2.00;1.23;;;27.20;80.40;;;;;;7407585;19;20126;-80
2022/07/13 18:48:39;;;;;;;1.15;1.00;;;27.20;79.90;;;;;;7402463;19;20150;-80
2022/07/13 18:51:05;;;;;;;2.67;1.58;;;27.20;81.10;;;;;;7400886;19;20206;-80
2022/07/13 18:53:32;;;;;;;2.22;1.65;;;27.10;80.70;;;;;;7404681;19;20135;-81
2022/07/13 18:55:57;;;;;;;2.55;1.40;;;27.10;81.30;;;;;;7395985;19;20637;-80
2022/07/13 18:58:23;;;;;;;2.88;1.45;;;27.10;80.50;;;;;;7396928;19;20135;-81
2022/07/13 19:00:49;;;;;;;2.00;1.50;;;27.10;81.00;;;;;;7398222;19;20135;-80
2022/07/13 19:03:15;;;;;;;3.55;1.70;;;27.20;81.80;;;;;;7403035;19;20580;-83
2022/07/13 19:05:41;;;;;;;2.15;1.55;;;27.00;81.50;;;;;;7400007;19;20142;-82
2022/07/13 19:08:07;;;;;;;2.05;1.35;;;27.00;82.10;;;;;;7398596;19;20150;-81
2022/07/13 19:10:33;;;;;;;1.80;1.58;;;27.00;83.00;;;;;;7401294;19;20142;-81
2022/07/13 19:13:02;;;;;;;1.63;1.40;;;27.00;83.80;;;;;;7404217;19;20138;-83
2022/07/13 19:15:30;;;;;;;3.30;1.83;;;26.90;84.20;;;;;;7398270;19;20151;-80
2022/07/13 19:17:56;;;;;;;2.40;1.67;;;26.80;84.90;;;;;;7402416;19;20150;-83
2022/07/13 19:20:22;;;;;;;1.83;1.42;;;26.80;85.30;;;;;;7395778;19;20192;-81
2022/07/13 19:22:48;;;;;;;2.90;1.63;;;26.70;84.80;;;;;;7401261;19;20155;-82
2022/07/13 19:27:58;;;;;;;2.78;1.55;;;26.60;86.40;;;;;;7396978;19;20134;-82
2022/07/13 19:30:25;;;;;;;1.83;1.50;;;26.60;86.50;;;;;;7402211;19;20157;-81
2022/07/13 19:32:51;;;;;;;2.55;1.48;;;26.50;86.60;;;;;;7409122;19;20218;-82
2022/07/13 19:35:16;;;;;;;2.08;1.30;;;26.40;87.00;;;;;;7410511;19;20171;-82
2022/07/13 19:37:42;;;;;;;3.05;1.30;;;26.40;86.70;;;;;;7410318;19;20206;-82
2022/07/13 19:40:08;;;;;;;2.75;1.10;;;26.40;86.50;;;;;;7409158;19;20722;-80
2022/07/13 19:42:34;;;;;;;1.95;1.20;;;26.30;86.80;;;;;;7407494;19;20583;-81
2022/07/13 19:45:01;;;;;;;1.52;1.20;;;26.30;86.80;;;;;;7412488;19;20146;-82
2022/07/13 19:47:26;;;;;;;2.40;1.25;;;26.30;87.30;;;;;;7414139;19;20133;-82
2022/07/13 19:49:54;;;;;;;1.58;1.23;;;26.20;87.70;;;;;;7408768;19;20135;-81
2022/07/13 19:52:20;;;;;;;1.55;1.10;;;26.20;87.00;;;;;;7403632;19;20150;-81
2022/07/13 19:54:46;;;;;;;2.47;1.50;;;26.20;87.10;;;;;;7408079;19;20131;-81
2022/07/13 19:57:12;;;;;;;1.75;1.50;;;26.10;86.90;;;;;;7390516;19;20147;-78
2022/07/13 19:59:38;;;;;;;2.20;1.52;;;25.90;87.20;;;;;;7391168;19;20154;-79
2022/07/13 20:02:08;;;;;;;2.83;1.42;;;25.90;87.70;;;;;;7392942;19;20143;-79
2022/07/13 20:04:33;;;;;;;3.20;1.40;;;25.90;87.20;;;;;;7392499;19;20146;-79
2022/07/13 20:06:59;;;;;;;1.95;1.33;;;25.90;87.50;;;;;;7392225;19;20171;-79
2022/07/13 20:09:25;;;;;;;2.58;1.45;;;25.90;87.40;;;;;;7390549;19;20612;-78
2022/07/13 20:11:51;;;;;;;1.63;1.10;;;25.90;87.60;;;;;;7393126;19;20146;-79
2022/07/13 20:14:18;;;;;;;2.13;1.38;;;25.90;87.40;;;;;;7390936;19;20611;-79
2022/07/13 20:16:43;;;;;;;1.52;1.02;;;26.00;87.80;;;;;;7392698;19;20154;-79
2022/07/13 20:19:09;;;;;;;1.77;1.33;;;25.90;88.00;;;;;;7391241;19;20625;-79
2022/07/13 20:21:35;;;;;;;1.70;1.30;;;25.80;88.00;;;;;;7392273;19;20151;-79
2022/07/13 20:24:01;;;;;;;1.85;1.48;;;25.80;88.70;;;;;;7391899;19;20179;-80
2022/07/13 20:26:27;;;;;;;3.25;1.20;;;25.80;88.40;;;;;;7390123;19;20178;-79
2022/07/13 20:28:53;;;;;;;1.40;1.20;;;25.80;88.60;;;;;;7391612;19;20166;-79
2022/07/13 20:31:19;;;;;;;1.13;1.02;;;25.70;88.20;;;;;;7391782;19;20135;-80
2022/07/13 20:33:51;;;;;;;3.70;1.45;;;25.80;88.40;;;;;;7391845;19;20150;-80
2022/07/13 20:36:18;;;;;;;3.00;1.30;;;25.80;88.80;;;;;;7392223;19;20883;-78
2022/07/13 20:38:44;;;;;;;1.35;1.20;;;25.80;88.70;;;;;;7391513;19;20151;-79
2022/07/13 20:41:09;;;;;;;2.88;1.02;;;25.80;88.90;;;;;;7392274;19;20153;-80
2022/07/13 20:43:36;;;;;;;2.95;1.42;;;25.70;88.90;;;;;;7391527;19;20588;-80
2022/07/13 20:46:02;;;;;;;3.25;1.35;;;25.70;89.20;;;;;;7392893;19;20996;-79
2022/07/13 20:48:28;;;;;;;1.25;1.15;;;25.70;89.60;;;;;;7392165;19;20146;-79
2022/07/13 20:50:54;;;;;;;1.33;1.23;;;25.60;90.00;;;;;;7392510;19;20141;-80
2022/07/13 20:53:21;;;;;;;3.47;1.58;;;25.60;90.10;;;;;;7392030;19;20169;-80
2022/07/13 20:55:48;;;;;;;5.38;1.27;;;25.50;90.20;;;;;;7392939;19;20146;-78
2022/07/13 20:58:19;;;;;;;3.05;1.20;;;25.40;90.40;;;;;;7392281;19;20173;-82
2022/07/13 21:00:45;;;;;;;2.15;1.10;;;25.30;90.40;;;;;;7390607;19;20141;-83
2022/07/13 21:03:10;;;;;;;1.90;1.48;;;25.30;90.50;;;;;;7390727;19;20230;-81
2022/07/13 21:05:36;;;;;;;2.00;1.25;;;25.30;90.60;;;;;;7389393;19;20130;-78
2022/07/13 21:08:02;;;;;;;1.88;1.23;;;25.30;90.80;;;;;;7391666;19;20134;-83
2022/07/13 21:10:28;;;;;;;2.90;1.50;;;25.30;90.90;;;;;;7390160;19;20147;-79
2022/07/13 21:12:54;;;;;;;4.93;1.13;;;25.20;90.90;;;;;;7391832;19;20556;-79
2022/07/13 21:15:20;;;;;;;4.18;1.25;;;25.20;91.00;;;;;;7390020;19;20629;-79
2022/07/13 21:21:48;;;;;;;1.63;1.20;;;25.30;91.20;;;;;;7381833;19;20572;-80
2022/07/13 21:24:16;;;;;;;2.20;1.50;;;25.10;91.30;;;;;;7390610;19;20157;-80
2022/07/13 21:26:42;;;;;;;1.88;1.42;;;25.10;91.40;;;;;;7389334;19;20177;-80
2022/07/13 21:29:09;;;;;;;4.18;1.17;;;25.10;91.60;;;;;;7387300;19;20152;-80
2022/07/13 21:31:35;;;;;;;2.33;1.20;;;25.00;91.70;;;;;;7392372;19;20151;-79
2022/07/13 21:34:01;;;;;;;2.20;1.30;;;25.00;91.80;;;;;;7390356;19;20625;-79
2022/07/13 21:36:27;;;;;;;4.30;1.30;;;25.00;91.90;;;;;;7391408;19;20513;-78
2022/07/13 21:38:52;;;;;;;1.70;1.00;;;25.00;91.80;;;;;;7387859;19;20616;-78
2022/07/13 21:41:19;;;;;;;2.35;1.02;;;25.00;91.70;;;;;;7390707;19;20261;-78
2022/07/13 21:43:45;;;;;;;1.15;0.90;;;25.00;91.60;;;;;;7389669;19;20647;-77
2022/07/13 21:46:11;;;;;;;1.60;1.08;;;25.00;91.70;;;;;;7386066;19;20139;-78
2022/07/13 21:48:37;;;;;;;1.92;1.50;;;25.00;91.60;;;;;;7387695;19;20139;-82
2022/07/13 21:51:03;;;;;;;5.15;2.90;;;25.00;91.60;;;;;;7388417;19;20147;-78
2022/07/13 21:53:29;;;;;;;3.97;1.20;;;25.00;91.60;;;;;;7387243;19;20490;-78
2022/07/13 21:55:55;;;;;;;1.90;1.60;;;25.00;91.60;;;;;;7387032;19;20184;-78
2022/07/13 21:58:21;;;;;;;4.20;1.83;;;24.90;91.60;;;;;;7386646;19;20179;-78
2022/07/13 22:00:46;;;;;;;1.23;1.10;;;24.90;91.80;;;;;;7382698;19;20153;-78
2022/07/13 22:03:12;;;;;;;3.03;0.98;;;24.80;91.90;;;;;;7389139;19;20131;-77
2022/07/13 22:06:00;;;;;;;1.63;1.10;;;24.80;92.00;;;;;;7388675;19;20250;-78
2022/07/13 22:08:26;;;;;;;1.42;1.10;;;24.70;92.10;;;;;;7395367;19;20154;-79
2022/07/13 22:11:29;;;;;;;1.88;1.25;;;24.70;92.30;;;;;;7395188;19;20802;-77
2022/07/13 22:14:33;;;;;;;4.63;1.08;;;24.70;92.30;;;;;;7396999;19;20533;-78
2022/07/13 22:17:36;;;;;;;3.25;1.05;;;24.70;92.20;;;;;;7396114;19;20214;-77
2022/07/13 22:20:40;;;;;;;8.02;3.70;;;24.80;92.20;;;;;;7392684;19;20158;-78
2022/07/13 22:23:43;;;;;;;2.33;1.55;;;24.90;92.00;;;;;;7394301;19;20134;-78
2022/07/13 22:26:46;;;;;;;2.78;1.40;;;24.90;92.00;;;;;;7394567;19;20174;-76
2022/07/13 22:29:50;;;;;;;2.00;1.05;;;24.80;92.20;;;;;;7392119;19;20149;-78
2022/07/13 22:32:53;;;;;;;1.60;0.85;;;24.70;92.20;;;;;;7396961;19;20150;-79
2022/07/13 22:35:56;;;;;;;3.83;1.15;;;24.70;92.40;;;;;;7394991;19;20198;-78
2022/07/13 22:39:00;;;;;;;2.92;1.08;;;24.70;92.60;;;;;;7392611;19;20138;-78
2022/07/13 22:42:03;;;;;;;1.02;0.90;;;24.70;92.50;;;;;;7396476;19;20727;-77
2022/07/13 22:45:06;;;;;;;1.30;1.00;;;24.70;92.40;;;;;;7393530;19;20154;-77
2022/07/13 22:48:09;;;;;;;2.05;1.00;;;24.60;92.30;;;;;;7392997;19;20130;-77
2022/07/13 22:51:13;;;;;;;1.75;1.30;;;24.50;92.20;;;;;;7392741;19;20146;-77
2022/07/13 22:54:16;;;;;;;1.70;1.30;;;24.50;92.40;;;;;;7395698;19;20206;-77
2022/07/13 22:57:19;;;;;;;2.05;1.02;;;24.50;92.20;;;;;;7395518;19;20147;-78
2022/07/13 23:00:23;;;;;;;2.05;0.90;;;24.40;92.30;;;;;;7392610;19;20153;-78
2022/07/13 23:03:26;;;;;;;2.10;1.17;;;24.40;92.30;;;;;;7393769;19;20134;-78
2022/07/13 23:06:29;;;;;;;1.15;0.93;;;24.30;92.30;;;;;;7394092;19;20146;-78
2022/07/13 23:09:33;;;;;;;1.63;1.02;;;24.30;92.20;;;;;;7393793;19;20146;-78
2022/07/13 23:12:36;;;;;;;4.75;1.02;;;24.30;92.20;;;;;;7391617;19;20169;-78
2022/07/13 23:15:39;;;;;;;1.85;0.88;;;24.30;92.00;;;;;;7392352;19;20509;-78
2022/07/13 23:18:43;;;;;;;0.85;0.80;;;24.30;91.80;;;;;;7391501;19;20157;-78
2022/07/13 23:21:47;;;;;;;1.73;0.80;;;24.30;91.50;;;;;;7392757;19;20146;-78
2022/07/13 23:24:50;;;;;;;1.85;0.70;;;24.30;91.30;;;;;;7391905;19;20170;-78
2022/07/13 23:27:54;;;;;;;1.08;0.90;;;24.30;91.20;;;;;;7389399;19;20146;-79
2022/07/13 23:30:38;;;;;;;1.80;0.80;;;24.40;91.20;;;;;;7393325;19;20225;-78
2022/07/13 23:33:04;;;;;;;1.08;0.70;;;24.40;91.00;;;;;;7390173;19;20141;-78
2022/07/13 23:35:30;;;;;;;0.90;0.80;;;24.50;91.10;;;;;;7390497;19;20146;-78
2022/07/13 23:37:57;;;;;;;1.15;0.93;;;24.50;91.20;;;;;;7390869;19;20158;-78
2022/07/13 23:40:23;;;;;;;1.13;0.80;;;24.50;91.20;;;;;;7388742;19;20158;-78
2022/07/13 23:42:49;;;;;;;1.00;0.90;;;24.60;91.40;;;;;;7388759;19;20166;-78
2022/07/13 23:45:15;;;;;;;3.95;1.20;;;24.60;91.40;;;;;;7390636;19;20608;-78
2022/07/13 23:47:41;;;;;;;1.65;0.90;;;24.60;91.40;;;;;;7392249;19;20169;-78
2022/07/13 23:50:07;;;;;;;1.88;0.98;;;24.70;91.30;;;;;;7390767;19;20616;-77
2022/07/13 23:52:33;;;;;;;2.53;1.10;;;24.60;91.40;;;;;;7392988;19;20147;-78
2022/07/13 23:55:00;;;;;;;2.15;1.50;;;24.50;92.00;;;;;;7389500;19;20150;-77
2022/07/13 23:57:26;;;;;;;1.90;1.50;;;24.60;91.90;;;;;;7390391;19;20167;-78
2022/07/13 23:59:52;;;;;;;1.70;1.40;;;24.80;91.80;;;;;;7384936;19;20159;-78
